createdAt,value
2023-10-26T00:04:13.613Z,1.73
2023-10-26T00:10:56.498Z,3.10
2023-10-26T00:17:39.785Z,2.97
2023-10-26T00:24:22.322Z,1.52
2023-10-26T00:31:04.789Z,1.90
2023-10-26T00:37:47.241Z,3.05
2023-10-26T00:44:29.714Z,1.80
2023-10-26T00:51:13.025Z,3.88
2023-10-26T00:57:56.940Z,3.83
2023-10-26T01:04:39.516Z,1.90
2023-10-26T01:11:22.955Z,4.20
2023-10-26T01:18:05.501Z,1.60
2023-10-26T01:24:48.385Z,3.25
2023-10-26T01:31:30.970Z,2.28
2023-10-26T01:38:14.181Z,1.33
2023-10-26T01:44:56.560Z,2.92
2023-10-26T01:51:40.000Z,2.35
2023-10-26T01:58:22.327Z,4.15
2023-10-26T02:05:05.188Z,4.13
2023-10-26T02:11:47.797Z,2.70
2023-10-26T02:18:33.022Z,2.10
2023-10-26T02:25:16.194Z,2.25
2023-10-26T02:31:58.693Z,1.73
2023-10-26T02:38:41.230Z,3.42
2023-10-26T02:45:23.452Z,3.50
2023-10-26T02:52:06.297Z,3.53
2023-10-26T02:58:48.532Z,3.20
2023-10-26T03:05:31.404Z,3.53
2023-10-26T03:12:13.825Z,4.18
2023-10-26T03:18:56.109Z,6.60
2023-10-26T03:25:38.689Z,5.43
2023-10-26T03:32:21.154Z,4.05
2023-10-26T03:39:03.908Z,3.97
2023-10-26T03:45:46.605Z,5.07
2023-10-26T03:52:28.966Z,3.67
2023-10-26T03:59:11.591Z,5.63
2023-10-26T04:05:54.088Z,3.30
2023-10-26T04:12:36.552Z,4.82
2023-10-26T04:19:18.997Z,5.97
2023-10-26T04:26:01.476Z,2.50
2023-10-26T04:32:43.986Z,5.25
2023-10-26T04:39:26.547Z,6.90
2023-10-26T04:46:11.378Z,5.07
2023-10-26T04:52:54.233Z,2.88
2023-10-26T04:59:36.660Z,4.55
2023-10-26T05:06:19.346Z,6.80
2023-10-26T05:13:01.755Z,6.28
2023-10-26T05:19:44.223Z,4.90
2023-10-26T05:26:26.738Z,4.70
2023-10-26T05:33:09.437Z,7.90
2023-10-26T05:39:51.931Z,5.15
2023-10-26T05:46:34.909Z,14.43
2023-10-26T05:53:17.275Z,3.20
2023-10-26T05:59:59.727Z,3.92
2023-10-26T06:06:42.071Z,4.43
2023-10-26T06:13:25.165Z,4.80
2023-10-26T06:20:08.546Z,3.67
2023-10-26T06:26:51.327Z,4.45
2023-10-26T06:33:34.172Z,5.45
2023-10-26T06:40:16.585Z,4.60
2023-10-26T06:46:58.960Z,6.13
2023-10-26T06:53:41.282Z,4.78
2023-10-26T07:00:23.717Z,4.90
2023-10-26T07:07:06.217Z,7.78
2023-10-26T07:13:48.619Z,5.82
2023-10-26T07:20:31.027Z,5.97
2023-10-26T07:27:19.224Z,3.92
2023-10-26T07:34:01.634Z,5.93
2023-10-26T07:40:54.643Z,6.15
2023-10-26T07:47:37.147Z,5.68
2023-10-26T07:54:19.586Z,5.82
2023-10-26T08:01:09.848Z,2.85
2023-10-26T08:07:53.333Z,3.58
2023-10-26T08:16:09.064Z,6.88
2023-10-26T08:21:38.058Z,8.20
2023-10-26T08:28:20.808Z,4.50
2023-10-26T08:35:04.242Z,5.32
2023-10-26T08:41:51.225Z,7.72
2023-10-26T08:48:35.390Z,7.50
2023-10-26T08:55:18.198Z,3.70
2023-10-26T09:02:00.987Z,5.07
2023-10-26T09:08:43.998Z,4.80
2023-10-26T09:15:26.656Z,6.30
2023-10-26T09:22:13.759Z,4.20
2023-10-26T09:28:57.118Z,4.80
2023-10-26T09:35:39.663Z,5.38
2023-10-26T09:42:22.115Z,4.50
2023-10-26T09:49:04.977Z,5.85
2023-10-26T09:55:49.985Z,5.10
2023-10-26T10:02:32.569Z,7.30
2023-10-26T10:09:17.244Z,3.78
2023-10-26T10:15:59.795Z,5.72
2023-10-26T10:22:46.281Z,3.90
2023-10-26T10:29:28.887Z,4.07
2023-10-26T10:36:11.276Z,5.43
2023-10-26T10:42:53.803Z,3.92
2023-10-26T10:49:36.344Z,4.00
2023-10-26T10:56:18.882Z,5.50
2023-10-26T11:03:01.327Z,3.33
2023-10-26T11:09:46.267Z,2.60
2023-10-26T11:16:28.789Z,3.47
2023-10-26T11:23:13.211Z,3.00
2023-10-26T11:30:05.622Z,2.80
2023-10-26T11:36:48.467Z,3.42
2023-10-26T11:43:35.638Z,5.10
2023-10-26T11:50:28.645Z,17.70
2023-10-26T11:57:11.032Z,4.22
2023-10-26T12:03:53.518Z,3.47
2023-10-26T12:10:36.183Z,2.67
2023-10-26T12:17:18.918Z,2.60
2023-10-26T12:24:01.429Z,1.60
2023-10-26T12:30:44.084Z,4.07
2023-10-26T12:37:26.844Z,2.60
2023-10-26T12:44:09.666Z,3.80
2023-10-26T12:50:52.356Z,2.03
2023-10-26T12:57:34.967Z,1.40
2023-10-26T13:04:17.871Z,2.00
2023-10-26T13:11:00.465Z,2.75
2023-10-26T13:17:43.043Z,2.70
2023-10-26T13:24:25.414Z,2.67
2023-10-26T13:31:08.067Z,3.75
2023-10-26T13:37:51.441Z,3.80
2023-10-26T13:44:33.910Z,2.80
2023-10-26T13:51:20.049Z,5.70
2023-10-26T13:58:03.016Z,4.32
2023-10-26T14:04:46.185Z,3.72
2023-10-26T14:11:30.457Z,3.55
2023-10-26T14:18:12.910Z,6.72
2023-10-26T14:24:55.847Z,5.32
2023-10-26T14:31:38.411Z,4.47
2023-10-26T14:38:20.956Z,5.82
2023-10-26T14:45:03.742Z,7.30
2023-10-26T14:51:46.225Z,7.15
2023-10-26T14:58:29.050Z,6.70
2023-10-26T15:05:11.426Z,5.43
2023-10-26T15:11:57.009Z,5.72
2023-10-26T15:18:41.357Z,5.20
2023-10-26T15:25:24.288Z,3.80
2023-10-26T15:32:07.228Z,4.65
2023-10-26T15:38:50.126Z,6.10
2023-10-26T15:45:33.052Z,7.43
2023-10-26T15:52:18.734Z,3.50
2023-10-26T15:59:01.111Z,6.95
2023-10-26T16:05:44.028Z,8.80
2023-10-26T16:12:27.034Z,4.65
2023-10-26T16:19:10.370Z,5.95
2023-10-26T16:25:54.594Z,8.32
2023-10-26T16:32:37.420Z,8.32
2023-10-26T16:39:20.259Z,6.20
2023-10-26T16:46:03.193Z,4.18
2023-10-26T16:52:46.731Z,9.38
2023-10-26T16:59:29.557Z,9.90
2023-10-26T17:06:12.121Z,8.27
2023-10-26T17:12:54.919Z,3.33
2023-10-26T17:19:37.320Z,9.15
2023-10-26T17:26:20.074Z,9.52
2023-10-26T17:33:02.690Z,6.68
2023-10-26T17:39:45.513Z,7.93
2023-10-26T17:46:28.711Z,11.73
2023-10-26T17:53:11.201Z,8.82
2023-10-26T17:59:53.738Z,8.73
2023-10-26T18:06:36.552Z,11.90
2023-10-26T18:13:19.270Z,11.68
2023-10-26T18:20:01.655Z,6.05
2023-10-26T18:26:44.080Z,7.22
2023-10-26T18:33:29.330Z,8.82
2023-10-26T18:40:12.343Z,8.38
2023-10-26T18:46:59.517Z,6.47
2023-10-26T18:53:42.226Z,11.57
2023-10-26T19:00:27.281Z,9.70
2023-10-26T19:07:14.447Z,8.90
2023-10-26T19:14:02.690Z,11.65
2023-10-26T19:20:45.505Z,10.43
2023-10-26T19:27:30.556Z,7.65
2023-10-26T19:34:13.016Z,8.30
2023-10-26T19:40:57.722Z,9.68
2023-10-26T19:47:40.875Z,10.27
2023-10-26T19:54:26.905Z,11.75
2023-10-26T20:01:15.874Z,10.88
2023-10-26T20:07:58.506Z,10.38
2023-10-26T20:14:42.103Z,8.32
2023-10-26T20:21:24.484Z,12.15
2023-10-26T20:28:07.066Z,10.95
2023-10-26T20:34:49.624Z,12.75
2023-10-26T20:41:32.144Z,9.90
2023-10-26T20:48:14.727Z,12.13
2023-10-26T20:54:57.302Z,10.20
2023-10-26T21:01:41.076Z,12.75
2023-10-26T21:08:23.715Z,10.63
2023-10-26T21:15:06.936Z,14.25
2023-10-26T21:21:49.480Z,10.80
2023-10-26T21:28:32.334Z,9.30
2023-10-26T21:35:14.684Z,11.63
2023-10-26T21:41:57.104Z,8.25
2023-10-26T21:48:40.507Z,8.50
2023-10-26T21:55:22.931Z,8.30
2023-10-26T22:02:08.628Z,7.07
2023-10-26T22:08:51.003Z,10.13
2023-10-26T22:15:33.518Z,6.85
2023-10-26T22:22:16.107Z,11.85
2023-10-26T22:28:58.537Z,14.25
2023-10-26T22:35:41.040Z,10.52
2023-10-26T22:42:23.821Z,10.00
2023-10-26T22:49:07.147Z,9.93
2023-10-26T22:55:51.131Z,8.13
2023-10-26T23:02:33.594Z,7.35
2023-10-26T23:09:16.672Z,7.32
2023-10-26T23:15:59.240Z,10.15
2023-10-26T23:22:41.707Z,7.60
2023-10-26T23:29:25.869Z,7.55
2023-10-26T23:36:12.857Z,11.63
2023-10-26T23:42:55.976Z,8.55
2023-10-26T23:49:38.659Z,8.52
2023-10-26T23:56:21.025Z,9.00
